createdAt,value
2023-01-12T00:01:59.948Z,3.40
2023-01-12T00:04:27.644Z,3.40
2023-01-12T00:06:55.211Z,3.50
2023-01-12T00:09:22.987Z,3.50
2023-01-12T00:11:50.419Z,3.60
2023-01-12T00:14:18.183Z,3.60
2023-01-12T00:16:45.563Z,3.60
2023-01-12T00:19:16.155Z,3.70
2023-01-12T00:22:02.359Z,3.70
2023-01-12T00:24:32.806Z,3.70
2023-01-12T00:27:01.984Z,3.80
2023-01-12T00:29:29.428Z,3.70
2023-01-12T00:31:58.415Z,3.70
2023-01-12T00:34:27.947Z,3.50
2023-01-12T00:36:57.322Z,3.50
2023-01-12T00:39:24.732Z,3.40
2023-01-12T00:42:10.593Z,3.40
2023-01-12T00:44:56.709Z,3.30
2023-01-12T00:47:24.109Z,3.10
2023-01-12T00:49:51.715Z,3.10
2023-01-12T00:52:30.456Z,3.00
2023-01-12T00:54:59.408Z,3.00
2023-01-12T00:57:28.499Z,2.90
2023-01-12T00:59:58.381Z,2.80
2023-01-12T01:02:26.634Z,2.80
2023-01-12T01:04:54.006Z,2.80
2023-01-12T01:07:21.929Z,2.70
2023-01-12T01:09:49.782Z,2.70
2023-01-12T01:12:17.815Z,2.70
2023-01-12T01:14:45.280Z,2.70
2023-01-12T01:17:12.586Z,2.70
2023-01-12T01:19:39.947Z,2.60
2023-01-12T01:22:07.309Z,2.60
2023-01-12T01:24:34.661Z,2.60
2023-01-12T01:27:02.017Z,2.60
2023-01-12T01:29:29.342Z,2.50
2023-01-12T01:31:56.730Z,2.40
2023-01-12T01:34:24.503Z,2.40
2023-01-12T01:36:51.909Z,2.40
2023-01-12T01:39:19.449Z,2.30
2023-01-12T01:41:48.299Z,2.30
2023-01-12T01:44:30.729Z,2.20
2023-01-12T01:47:08.247Z,2.20
2023-01-12T01:49:46.692Z,2.20
2023-01-12T01:52:20.074Z,2.20
2023-01-12T01:54:50.904Z,2.20
2023-01-12T01:57:19.293Z,2.20
2023-01-12T01:59:52.359Z,2.20
2023-01-12T02:02:20.039Z,2.30
2023-01-12T02:04:47.468Z,2.40
2023-01-12T02:07:14.820Z,2.30
2023-01-12T02:09:42.234Z,2.30
2023-01-12T02:12:28.152Z,2.20
2023-01-12T02:15:14.832Z,2.20
2023-01-12T02:18:10.876Z,2.10
2023-01-12T02:21:15.264Z,2.10
2023-01-12T02:24:27.101Z,2.00
2023-01-12T02:27:31.318Z,2.00
2023-01-12T02:30:26.261Z,2.00
2023-01-12T02:33:15.453Z,1.90
2023-01-12T02:35:57.659Z,1.90
2023-01-12T02:38:52.448Z,1.90
2023-01-12T02:42:09.393Z,1.90
2023-01-12T02:45:15.790Z,2.00
2023-01-12T02:48:07.706Z,2.10
2023-01-12T02:51:08.624Z,2.00
2023-01-12T02:53:52.139Z,2.00
2023-01-12T02:56:29.230Z,1.90
2023-01-12T02:59:02.891Z,2.00
2023-01-12T03:01:34.111Z,2.00
2023-01-12T03:04:05.067Z,2.00
2023-01-12T03:06:43.197Z,2.00
2023-01-12T03:09:10.713Z,2.00
2023-01-12T03:11:39.903Z,2.00
2023-01-12T03:14:09.202Z,2.10
2023-01-12T03:16:37.621Z,2.00
2023-01-12T03:19:28.229Z,2.10
2023-01-12T03:22:05.354Z,2.10
2023-01-12T03:24:43.553Z,2.00
2023-01-12T03:27:18.181Z,2.10
2023-01-12T03:29:52.166Z,2.00
2023-01-12T03:32:21.437Z,1.90
2023-01-12T03:34:49.118Z,1.90
2023-01-12T03:37:22.537Z,1.80
2023-01-12T03:40:02.797Z,1.80
2023-01-12T03:42:52.641Z,1.80
2023-01-12T03:45:39.899Z,1.80
2023-01-12T03:48:21.232Z,1.70
2023-01-12T03:50:57.364Z,1.70
2023-01-12T03:53:25.103Z,1.80
2023-01-12T03:55:59.775Z,1.80
2023-01-12T03:58:27.456Z,1.90
2023-01-12T04:00:54.922Z,1.80
2023-01-12T04:03:24.556Z,1.90
2023-01-12T04:05:52.052Z,1.80
2023-01-12T04:08:19.690Z,1.90
2023-01-12T04:10:47.170Z,1.90
2023-01-12T04:13:14.734Z,1.90
2023-01-12T04:15:45.048Z,1.90
2023-01-12T04:18:12.947Z,1.90
2023-01-12T04:20:40.742Z,1.90
2023-01-12T04:23:08.251Z,1.90
2023-01-12T04:25:35.931Z,1.90
2023-01-12T04:28:04.055Z,1.80
2023-01-12T04:30:32.985Z,1.80
2023-01-12T04:33:01.483Z,1.80
2023-01-12T04:35:28.903Z,1.80
2023-01-12T04:37:56.818Z,1.80
2023-01-12T04:40:25.222Z,1.80
2023-01-12T04:43:11.210Z,1.70
2023-01-12T04:45:40.423Z,1.60
2023-01-12T04:48:11.288Z,1.60
2023-01-12T04:50:39.993Z,1.60
2023-01-12T04:53:09.772Z,1.50
2023-01-12T04:55:40.731Z,1.60
2023-01-12T04:58:08.176Z,1.60
2023-01-12T05:00:36.125Z,1.50
2023-01-12T05:03:03.782Z,1.50
2023-01-12T05:05:32.701Z,1.50
2023-01-12T05:08:20.041Z,1.50
2023-01-12T05:10:51.969Z,1.40
2023-01-12T05:13:20.167Z,1.50
2023-01-12T05:15:47.460Z,1.50
2023-01-12T05:18:14.788Z,1.50
2023-01-12T05:20:42.346Z,1.40
2023-01-12T05:23:09.658Z,1.40
2023-01-12T05:25:36.940Z,1.40
2023-01-12T05:28:04.431Z,1.40
2023-01-12T05:30:32.294Z,1.30
2023-01-12T05:32:59.822Z,1.30
2023-01-12T05:35:27.307Z,1.50
2023-01-12T05:37:57.678Z,1.60
2023-01-12T05:40:25.415Z,1.60
2023-01-12T05:43:11.429Z,1.60
2023-01-12T05:45:38.765Z,1.60
2023-01-12T05:48:06.730Z,1.60
2023-01-12T05:50:34.102Z,1.60
2023-01-12T05:53:01.386Z,1.50
2023-01-12T05:55:28.680Z,1.60
2023-01-12T05:57:56.210Z,1.50
2023-01-12T06:00:23.883Z,1.60
2023-01-12T06:02:51.438Z,1.70
2023-01-12T06:05:18.869Z,1.70
2023-01-12T06:07:46.253Z,1.70
2023-01-12T06:10:13.826Z,1.70
2023-01-12T06:12:59.620Z,1.70
2023-01-12T06:15:26.988Z,1.70
2023-01-12T06:17:56.533Z,1.80
2023-01-12T06:20:23.900Z,1.70
2023-01-12T06:22:51.180Z,1.70
2023-01-12T06:25:18.671Z,1.80
2023-01-12T06:27:46.005Z,1.80
2023-01-12T06:30:13.831Z,1.80
2023-01-12T06:32:41.857Z,1.70
2023-01-12T06:35:18.571Z,1.80
2023-01-12T06:37:47.328Z,1.70
2023-01-12T06:40:15.202Z,1.70
2023-01-12T06:42:42.564Z,1.90
2023-01-12T06:45:10.830Z,1.90
2023-01-12T06:47:46.191Z,2.00
2023-01-12T06:50:13.690Z,2.00
2023-01-12T06:52:41.067Z,2.20
2023-01-12T06:55:09.113Z,2.20
2023-01-12T06:57:36.506Z,2.20
2023-01-12T07:00:06.070Z,2.20
2023-01-12T07:02:33.487Z,2.20
2023-01-12T07:05:00.784Z,2.30
2023-01-12T07:07:28.092Z,2.40
2023-01-12T07:09:55.594Z,2.40
2023-01-12T07:12:22.892Z,2.50
2023-01-12T07:14:50.227Z,2.50
2023-01-12T07:17:18.140Z,2.50
2023-01-12T07:19:45.572Z,2.50
2023-01-12T07:22:13.020Z,2.60
2023-01-12T07:24:40.409Z,2.60
2023-01-12T07:27:07.777Z,2.60
2023-01-12T07:29:35.202Z,2.60
2023-01-12T07:32:02.683Z,2.70
2023-01-12T07:34:30.309Z,2.70
2023-01-12T07:36:58.029Z,2.70
2023-01-12T07:39:25.461Z,2.80
2023-01-12T07:42:11.415Z,2.80
2023-01-12T07:44:40.519Z,2.80
2023-01-12T07:47:07.888Z,2.80
2023-01-12T07:49:35.290Z,2.70
2023-01-12T07:52:02.635Z,2.70
2023-01-12T07:54:30.160Z,2.70
2023-01-12T07:56:59.087Z,2.60
2023-01-12T07:59:27.911Z,2.60
2023-01-12T08:01:55.990Z,2.60
2023-01-12T08:04:23.640Z,2.60
2023-01-12T08:06:50.973Z,2.50
2023-01-12T08:09:18.277Z,2.50
2023-01-12T08:11:45.535Z,2.50
2023-01-12T08:14:30.623Z,2.50
2023-01-12T08:17:01.843Z,2.40
2023-01-12T08:19:38.903Z,2.50
2023-01-12T08:22:12.537Z,2.40
2023-01-12T08:24:47.013Z,2.40
2023-01-12T08:27:15.661Z,2.40
2023-01-12T08:29:47.282Z,2.40
2023-01-12T08:32:18.710Z,2.40
2023-01-12T08:34:50.418Z,2.40
2023-01-12T08:37:22.351Z,2.40
2023-01-12T08:39:51.155Z,2.40
2023-01-12T08:42:20.196Z,2.40
2023-01-12T08:44:47.508Z,2.50
2023-01-12T08:47:27.245Z,2.50
2023-01-12T08:49:55.654Z,2.60
2023-01-12T08:52:23.640Z,2.60
2023-01-12T08:54:51.092Z,2.70
2023-01-12T08:57:19.787Z,2.70
2023-01-12T08:59:47.137Z,2.70
2023-01-12T09:02:16.027Z,2.80
2023-01-12T09:04:43.568Z,2.80
2023-01-12T09:07:12.073Z,2.80
2023-01-12T09:09:39.807Z,2.80
2023-01-12T09:12:07.459Z,2.80
2023-01-12T09:14:39.133Z,2.80
2023-01-12T09:17:07.777Z,2.90
2023-01-12T09:19:35.317Z,2.90
2023-01-12T09:22:02.687Z,2.80
2023-01-12T09:24:30.334Z,2.80
2023-01-12T09:26:57.687Z,2.80
2023-01-12T09:29:25.354Z,2.80
2023-01-12T09:31:52.753Z,2.80
2023-01-12T09:34:20.137Z,2.80
2023-01-12T09:36:49.047Z,2.80
2023-01-12T09:39:32.537Z,2.80
2023-01-12T09:42:18.579Z,2.80
2023-01-12T09:45:17.051Z,2.90
2023-01-12T09:47:56.523Z,2.90
2023-01-12T09:50:33.835Z,2.90
2023-01-12T09:53:31.371Z,2.90
2023-01-12T09:56:09.028Z,2.90
2023-01-12T09:58:54.112Z,3.00
2023-01-12T10:01:29.246Z,3.10
2023-01-12T10:04:00.272Z,3.10
2023-01-12T10:06:27.864Z,3.20
2023-01-12T10:09:04.593Z,3.20
2023-01-12T10:11:58.586Z,3.30
2023-01-12T10:14:53.651Z,3.30
2023-01-12T10:17:45.956Z,3.40
2023-01-12T10:20:23.188Z,3.40
2023-01-12T10:22:55.860Z,3.40
2023-01-12T10:25:33.026Z,3.50
2023-01-12T10:28:05.854Z,3.50
2023-01-12T10:30:35.852Z,3.50
2023-01-12T10:33:38.517Z,3.60
2023-01-12T10:36:11.431Z,3.60
2023-01-12T10:38:54.757Z,3.80
2023-01-12T10:41:28.664Z,3.80
2023-01-12T10:44:17.797Z,3.80
2023-01-12T10:47:09.307Z,3.90
2023-01-12T10:49:37.000Z,3.90
2023-01-12T10:52:22.494Z,4.00
2023-01-12T10:54:50.142Z,4.00
2023-01-12T10:57:23.579Z,4.00
2023-01-12T10:59:53.353Z,3.90
2023-01-12T11:02:20.990Z,4.00
2023-01-12T11:04:51.748Z,3.90
2023-01-12T11:07:29.354Z,3.90
2023-01-12T11:10:26.140Z,4.00
2023-01-12T11:13:03.730Z,4.00
2023-01-12T11:15:35.878Z,4.00
2023-01-12T11:18:14.869Z,4.00
2023-01-12T11:20:49.802Z,4.00
2023-01-12T11:23:20.970Z,4.00
2023-01-12T11:25:51.466Z,4.00
2023-01-12T11:28:24.602Z,3.90
2023-01-12T11:31:02.492Z,4.00
2023-01-12T11:33:33.159Z,3.90
2023-01-12T11:36:06.697Z,3.90
2023-01-12T11:38:47.797Z,3.90
2023-01-12T11:41:31.398Z,3.90
2023-01-12T11:44:17.485Z,3.90
2023-01-12T11:46:46.891Z,4.00
2023-01-12T11:49:35.304Z,4.00
2023-01-12T11:52:03.168Z,3.90
2023-01-12T11:54:32.047Z,3.90
2023-01-12T11:57:30.213Z,3.90
2023-01-12T12:00:10.106Z,3.90
2023-01-12T12:02:57.959Z,4.00
2023-01-12T12:05:49.751Z,4.00
2023-01-12T12:08:31.507Z,4.10
2023-01-12T12:11:12.084Z,4.10
2023-01-12T12:13:49.980Z,4.00
2023-01-12T12:16:31.291Z,4.10
2023-01-12T12:19:20.269Z,4.10
2023-01-12T12:22:15.684Z,4.00
2023-01-12T12:25:04.727Z,4.00
2023-01-12T12:28:03.770Z,4.00
2023-01-12T12:30:55.945Z,4.00
2023-01-12T12:33:52.152Z,4.10
2023-01-12T12:36:22.320Z,4.10
2023-01-12T12:39:11.277Z,4.10
2023-01-12T12:42:16.875Z,4.10
2023-01-12T12:45:21.724Z,4.10
2023-01-12T12:48:18.366Z,4.10
2023-01-12T12:51:01.617Z,4.10
2023-01-12T12:53:40.267Z,4.10
2023-01-12T12:56:16.022Z,4.10
2023-01-12T12:58:44.943Z,4.10
2023-01-12T13:01:22.663Z,4.10
2023-01-12T13:03:52.501Z,4.10
2023-01-12T13:06:24.299Z,4.00
2023-01-12T13:08:57.665Z,4.10
2023-01-12T13:11:54.322Z,4.10
2023-01-12T13:14:32.116Z,4.10
2023-01-12T13:17:22.648Z,4.10
2023-01-12T13:19:53.225Z,4.20
2023-01-12T13:22:29.623Z,4.20
2023-01-12T13:25:10.415Z,4.30
2023-01-12T13:27:56.970Z,4.30
2023-01-12T13:30:30.348Z,4.30
2023-01-12T13:33:16.078Z,4.30
2023-01-12T13:35:48.871Z,4.30
2023-01-12T13:38:34.140Z,4.30
2023-01-12T13:41:15.699Z,4.40
2023-01-12T13:43:49.172Z,4.30
2023-01-12T13:46:24.822Z,4.30
2023-01-12T13:48:54.653Z,4.40
2023-01-12T13:51:34.439Z,4.40
2023-01-12T13:54:14.062Z,4.30
2023-01-12T13:56:42.671Z,4.30
2023-01-12T13:59:19.868Z,4.30
2023-01-12T14:01:48.892Z,4.20
2023-01-12T14:04:19.872Z,4.20
2023-01-12T14:07:06.704Z,4.30
2023-01-12T14:09:59.174Z,4.20
2023-01-12T14:12:53.447Z,4.20
2023-01-12T14:15:52.656Z,4.10
2023-01-12T14:18:23.349Z,4.10
2023-01-12T14:20:55.337Z,4.10
2023-01-12T14:23:35.150Z,4.00
2023-01-12T14:26:13.883Z,4.00
2023-01-12T14:28:47.483Z,4.10
2023-01-12T14:31:20.125Z,4.10
2023-01-12T14:33:57.290Z,4.10
2023-01-12T14:36:51.104Z,4.10
2023-01-12T14:39:22.354Z,4.10
2023-01-12T14:42:10.898Z,4.20
2023-01-12T14:45:07.000Z,4.20
2023-01-12T14:47:35.269Z,4.10
2023-01-12T14:50:29.376Z,4.10
2023-01-12T14:52:56.926Z,4.10
2023-01-12T14:55:39.091Z,4.20
2023-01-12T14:58:14.851Z,4.10
2023-01-12T15:00:44.124Z,4.10
2023-01-12T15:03:26.296Z,4.20
2023-01-12T15:05:56.611Z,4.10
2023-01-12T15:08:31.118Z,4.10
2023-01-12T15:11:05.592Z,4.10
2023-01-12T15:13:35.190Z,4.10
2023-01-12T15:16:22.979Z,4.10
2023-01-12T15:19:09.093Z,4.10
2023-01-12T15:21:56.430Z,4.10
2023-01-12T15:24:46.685Z,4.10
2023-01-12T15:27:16.521Z,4.10
2023-01-12T15:29:44.087Z,4.20
2023-01-12T15:32:19.503Z,4.10
2023-01-12T15:34:47.559Z,4.10
2023-01-12T15:37:20.554Z,4.10
2023-01-12T15:39:48.434Z,4.10
2023-01-12T15:42:18.609Z,4.10
2023-01-12T15:44:47.899Z,4.10
2023-01-12T15:47:16.827Z,4.20
2023-01-12T15:49:48.676Z,4.10
2023-01-12T15:52:21.352Z,4.10
2023-01-12T15:54:48.772Z,4.20
2023-01-12T15:57:16.945Z,4.20
2023-01-12T15:59:44.514Z,4.10
2023-01-12T16:02:36.783Z,4.10
2023-01-12T16:05:06.500Z,4.20
2023-01-12T16:07:34.179Z,4.10
2023-01-12T16:10:01.635Z,4.10
2023-01-12T16:12:31.605Z,4.10
2023-01-12T16:14:59.375Z,4.20
2023-01-12T16:17:26.849Z,4.10
2023-01-12T16:19:54.383Z,4.10
2023-01-12T16:22:26.601Z,4.20
2023-01-12T16:24:56.179Z,4.20
2023-01-12T16:27:25.834Z,4.20
2023-01-12T16:29:54.464Z,4.10
2023-01-12T16:32:26.580Z,4.20
2023-01-12T16:34:54.032Z,4.10
2023-01-12T16:37:23.342Z,4.10
2023-01-12T16:39:50.951Z,4.10
2023-01-12T16:42:18.387Z,4.10
2023-01-12T16:44:45.875Z,4.10
2023-01-12T16:47:15.542Z,4.00
2023-01-12T16:49:43.381Z,4.10
2023-01-12T16:52:15.051Z,4.10
2023-01-12T16:54:43.064Z,4.10
2023-01-12T16:57:11.648Z,4.10
2023-01-12T16:59:39.407Z,4.00
2023-01-12T17:02:08.679Z,4.00
2023-01-12T17:04:38.073Z,4.00
2023-01-12T17:07:06.622Z,4.00
2023-01-12T17:09:38.456Z,4.00
2023-01-12T17:12:07.140Z,3.90
2023-01-12T17:14:35.134Z,4.00
2023-01-12T17:17:06.219Z,4.00
2023-01-12T17:19:35.694Z,4.00
2023-01-12T17:22:04.605Z,4.00
2023-01-12T17:24:33.582Z,4.10
2023-01-12T17:27:01.631Z,4.00
2023-01-12T17:29:29.329Z,4.00
2023-01-12T17:32:06.903Z,4.00
2023-01-12T17:34:39.357Z,4.00
2023-01-12T17:37:10.349Z,4.00
2023-01-12T17:39:46.271Z,4.00
2023-01-12T17:42:35.150Z,4.00
2023-01-12T17:45:03.816Z,4.10
2023-01-12T17:47:31.628Z,4.00
2023-01-12T17:49:59.180Z,4.00
2023-01-12T17:52:26.596Z,4.00
2023-01-12T17:54:54.559Z,3.90
2023-01-12T17:57:22.081Z,4.00
2023-01-12T17:59:50.188Z,3.90
2023-01-12T18:02:18.599Z,3.90
2023-01-12T18:04:46.738Z,3.80
2023-01-12T18:07:14.369Z,3.90
2023-01-12T18:09:42.143Z,3.90
2023-01-12T18:12:10.770Z,3.90
2023-01-12T18:14:39.011Z,3.90
2023-01-12T18:17:06.592Z,3.90
2023-01-12T18:19:34.886Z,4.00
2023-01-12T18:22:07.123Z,4.00
2023-01-12T18:24:35.085Z,3.90
2023-01-12T18:27:03.107Z,3.90
2023-01-12T18:29:30.689Z,3.90
2023-01-12T18:31:58.240Z,3.90
2023-01-12T18:34:25.744Z,3.90
2023-01-12T18:36:53.427Z,3.90
2023-01-12T18:39:21.876Z,3.90
2023-01-12T18:42:08.947Z,4.00
2023-01-12T18:44:38.571Z,3.90
2023-01-12T18:47:25.099Z,4.00
2023-01-12T18:49:57.851Z,3.90
2023-01-12T18:52:44.045Z,3.90
2023-01-12T18:55:11.545Z,3.90
2023-01-12T18:57:39.248Z,3.90
2023-01-12T19:00:18.035Z,4.00
2023-01-12T19:02:45.631Z,4.00
2023-01-12T19:05:33.301Z,3.90
2023-01-12T19:08:00.813Z,3.80
2023-01-12T19:10:29.697Z,3.80
2023-01-12T19:13:18.205Z,3.80
2023-01-12T19:16:06.320Z,3.80
2023-01-12T19:18:37.133Z,3.80
2023-01-12T19:21:27.565Z,3.90
2023-01-12T19:24:14.896Z,4.00
2023-01-12T19:27:00.684Z,4.00
2023-01-12T19:29:28.382Z,3.90
2023-01-12T19:31:55.681Z,3.90
2023-01-12T19:34:24.969Z,4.00
2023-01-12T19:36:53.143Z,3.90
2023-01-12T19:39:28.839Z,3.90
2023-01-12T19:42:14.699Z,3.70
2023-01-12T19:44:42.124Z,3.70
2023-01-12T19:47:09.606Z,3.70
2023-01-12T19:49:37.099Z,3.70
2023-01-12T19:52:04.809Z,3.70
2023-01-12T19:54:33.385Z,3.70
2023-01-12T19:57:00.552Z,3.90
2023-01-12T19:59:28.172Z,3.90
2023-01-12T20:01:55.536Z,3.90
2023-01-12T20:04:22.671Z,3.90
2023-01-12T20:06:53.622Z,3.90
2023-01-12T20:09:21.605Z,3.90
2023-01-12T20:11:55.365Z,3.80
2023-01-12T20:14:22.790Z,3.80
2023-01-12T20:16:49.992Z,3.90
2023-01-12T20:19:20.858Z,3.80
2023-01-12T20:21:48.696Z,3.70
2023-01-12T20:24:16.501Z,3.70
2023-01-12T20:26:44.069Z,3.70
2023-01-12T20:29:11.660Z,3.70
2023-01-12T20:31:39.312Z,3.70
2023-01-12T20:34:06.540Z,3.80
2023-01-12T20:36:33.784Z,3.70
2023-01-12T20:39:01.120Z,3.80
2023-01-12T20:41:28.290Z,3.90
2023-01-12T20:43:55.984Z,3.90
2023-01-12T20:46:24.510Z,4.00
2023-01-12T20:48:52.765Z,4.00
2023-01-12T20:51:20.232Z,3.90
2023-01-12T20:53:47.628Z,3.90
2023-01-12T20:56:15.237Z,4.00
2023-01-12T20:58:42.690Z,4.10
2023-01-12T21:01:14.622Z,4.10
2023-01-12T21:03:43.360Z,3.90
2023-01-12T21:06:13.367Z,4.00
2023-01-12T21:08:44.888Z,4.10
2023-01-12T21:11:14.272Z,4.00
2023-01-12T21:13:41.800Z,4.00
2023-01-12T21:16:15.230Z,4.00
2023-01-12T21:18:43.019Z,4.00
2023-01-12T21:21:11.271Z,3.80
2023-01-12T21:23:38.656Z,3.70
2023-01-12T21:26:07.882Z,3.70
2023-01-12T21:28:37.767Z,3.80
2023-01-12T21:31:05.856Z,3.70
2023-01-12T21:33:33.824Z,3.70
2023-01-12T21:36:01.761Z,3.60
2023-01-12T21:38:29.043Z,3.50
2023-01-12T21:41:00.140Z,3.50
2023-01-12T21:43:27.257Z,3.50
2023-01-12T21:45:54.846Z,3.40
2023-01-12T21:48:23.507Z,3.40
2023-01-12T21:50:50.761Z,3.40
2023-01-12T21:53:21.667Z,3.40
2023-01-12T21:55:54.593Z,3.50
2023-01-12T21:58:24.086Z,3.40
2023-01-12T22:00:52.215Z,3.40
2023-01-12T22:03:23.400Z,3.40
2023-01-12T22:05:50.836Z,3.40
2023-01-12T22:08:18.060Z,3.40
2023-01-12T22:10:45.740Z,3.50
2023-01-12T22:13:17.650Z,3.50
2023-01-12T22:15:45.197Z,3.50
2023-01-12T22:18:12.571Z,3.40
2023-01-12T22:20:40.145Z,3.50
2023-01-12T22:23:10.753Z,3.40
2023-01-12T22:25:38.165Z,3.40
2023-01-12T22:28:05.567Z,3.30
2023-01-12T22:30:32.719Z,3.30
2023-01-12T22:32:59.887Z,3.30
2023-01-12T22:35:27.085Z,3.30
2023-01-12T22:37:54.806Z,3.20
2023-01-12T22:40:21.999Z,3.20
2023-01-12T22:43:07.509Z,3.30
2023-01-12T22:45:37.651Z,3.20
2023-01-12T22:48:05.288Z,3.10
2023-01-12T22:50:32.959Z,3.10
2023-01-12T22:53:00.152Z,3.10
2023-01-12T22:55:27.329Z,3.00
2023-01-12T22:57:54.623Z,3.00
2023-01-12T23:00:22.275Z,3.10
2023-01-12T23:03:02.081Z,3.20
2023-01-12T23:05:36.371Z,3.30
2023-01-12T23:08:06.867Z,3.30
2023-01-12T23:10:34.784Z,3.30
2023-01-12T23:13:16.154Z,3.30
2023-01-12T23:15:49.257Z,3.20
2023-01-12T23:18:22.000Z,3.20
2023-01-12T23:20:49.882Z,3.20
2023-01-12T23:23:18.319Z,3.20
2023-01-12T23:25:47.163Z,3.20
2023-01-12T23:28:15.045Z,3.20
2023-01-12T23:30:42.852Z,3.10
2023-01-12T23:33:10.583Z,3.10
2023-01-12T23:35:40.551Z,3.10
2023-01-12T23:38:11.695Z,3.20
2023-01-12T23:40:38.939Z,3.10
2023-01-12T23:43:06.197Z,3.20
2023-01-12T23:45:34.372Z,3.20
2023-01-12T23:48:01.600Z,3.20
2023-01-12T23:50:28.869Z,3.10
2023-01-12T23:52:56.115Z,3.10
2023-01-12T23:55:23.410Z,3.10
2023-01-12T23:57:50.707Z,3.10
